Time;durP1;ratioP1;P1;durP2;ratioP2;P2;SDS_P1;SDS_P2;PMS_P1;PMS_P2;Temp;Humidity;BMP_temperature;BMP_pressure;BME280_temperature;BME280_humidity;BME280_pressure;Samples;Min_cycle;Max_cycle;Signal;HPM_P1;HPM_P2
2023/06/07 00:02:45;;;;;;;15.03;5.75;;;;;;;19.68;62.77;100874.63;5227080;56;1140739;-75
2023/06/07 00:07:51;;;;;;;12.63;5.03;;;;;;;19.59;62.61;100875.96;5212700;56;1140975;-70
2023/06/07 00:12:56;;;;;;;7.02;5.58;;;;;;;19.54;62.95;100874.81;5140717;57;1140547;-75
2023/06/07 00:18:02;;;;;;;15.28;6.90;;;;;;;19.47;63.33;100865.20;5140756;57;1138394;-73
2023/06/07 00:23:10;;;;;;;17.62;8.53;;;;;;;19.36;63.06;100869.58;5160656;57;1140907;-69
2023/06/07 00:28:16;;;;;;;19.25;8.13;;;;;;;19.29;63.58;100865.37;5217237;56;1140551;-74
2023/06/07 00:33:24;;;;;;;12.47;7.92;;;;;;;19.16;64.05;100862.34;5178250;56;1140903;-74
2023/06/07 00:38:30;;;;;;;25.48;9.73;;;;;;;18.86;64.00;100866.98;5238594;56;1141041;-74
2023/06/07 00:43:35;;;;;;;17.55;8.50;;;;;;;18.71;65.27;100866.78;5187751;56;1141005;-73
2023/06/07 00:48:42;;;;;;;16.95;8.53;;;;;;;18.71;65.78;100869.96;5151887;57;1140765;-69
2023/06/07 00:53:50;;;;;;;14.07;6.95;;;;;;;18.68;66.24;100874.30;5151774;56;1140898;-68
2023/06/07 00:58:57;;;;;;;20.23;6.85;;;;;;;18.55;65.87;100871.55;5223126;56;1140977;-72
2023/06/07 01:04:05;;;;;;;13.10;7.15;;;;;;;18.53;65.72;100872.21;5185765;56;1140868;-73
2023/06/07 01:09:13;;;;;;;12.58;7.83;;;;;;;18.49;65.91;100872.19;5239118;56;1140999;-70
2023/06/07 01:14:20;;;;;;;18.85;6.55;;;;;;;18.43;65.77;100872.85;5259227;56;1140956;-70
2023/06/07 01:19:29;;;;;;;11.28;6.03;;;;;;;18.38;65.89;100877.84;5238896;56;1140704;-74
2023/06/07 01:24:42;;;;;;;9.15;5.95;;;;;;;18.21;65.96;100870.23;5238891;56;1140729;-73
2023/06/07 01:29:46;;;;;;;8.50;6.20;;;;;;;18.21;66.33;100869.39;5211880;56;1138886;-71
2023/06/07 01:34:53;;;;;;;9.43;5.63;;;;;;;18.09;66.57;100871.51;5172288;57;1138622;-73
2023/06/07 01:40:00;;;;;;;12.10;6.47;;;;;;;17.91;66.57;100864.88;5160741;56;1138591;-71
2023/06/07 01:45:10;;;;;;;16.20;7.47;;;;;;;17.67;67.31;100861.21;5238842;56;1140904;-74
2023/06/07 01:50:23;;;;;;;10.40;7.00;;;;;;;17.35;68.49;100855.08;5258981;56;1140744;-74
2023/06/07 01:55:29;;;;;;;14.20;8.10;;;;;;;17.12;69.74;100857.37;5238787;56;1140557;-72
2023/06/07 02:00:51;;;;;;;11.67;7.47;;;;;;;17.05;70.50;100858.98;5187867;56;1141042;-70
2023/06/07 02:06:00;;;;;;;13.50;7.50;;;;;;;17.04;70.88;100850.63;5171293;57;1141032;-73
2023/06/07 02:11:06;;;;;;;13.30;7.43;;;;;;;16.87;71.15;100857.64;5152306;57;1140746;-69
2023/06/07 02:16:12;;;;;;;19.13;8.37;;;;;;;16.69;71.55;100860.28;5151108;57;1140700;-72
2023/06/07 02:21:18;;;;;;;11.70;7.50;;;;;;;16.57;71.75;100856.11;5172109;57;1140965;-74
2023/06/07 02:26:25;;;;;;;17.73;7.80;;;;;;;16.71;73.19;100854.30;5197905;56;1140740;-74
2023/06/07 02:31:31;;;;;;;15.53;8.07;;;;;;;16.85;73.19;100855.61;5180967;56;1140998;-69
2023/06/07 02:36:40;;;;;;;12.58;7.50;;;;;;;16.86;72.99;100852.78;5152328;57;1141042;-68
2023/06/07 02:41:44;;;;;;;20.60;8.23;;;;;;;16.71;72.32;100854.30;5210769;56;1141267;-71
2023/06/07 02:46:49;;;;;;;17.63;8.90;;;;;;;16.73;73.37;100860.33;5238781;56;1140687;-74
2023/06/07 02:51:55;;;;;;;18.50;8.33;;;;;;;16.82;73.16;100862.58;5238641;56;1140770;-72
2023/06/07 02:57:01;;;;;;;14.37;8.00;;;;;;;16.88;73.41;100860.66;5217365;56;1140859;-69
2023/06/07 03:02:07;;;;;;;16.33;7.50;;;;;;;16.88;73.59;100858.82;5200844;56;1140974;-73
2023/06/07 03:07:13;;;;;;;12.47;7.70;;;;;;;16.79;73.60;100861.08;5206471;56;1140700;-75
2023/06/07 03:12:20;;;;;;;15.67;6.53;;;;;;;16.67;73.30;100863.59;5226478;56;1141019;-70
2023/06/07 03:17:27;;;;;;;12.27;7.27;;;;;;;16.59;73.02;100866.64;4986358;58;1140732;-67
2023/06/07 03:22:36;;;;;;;16.00;7.97;;;;;;;16.50;73.33;100859.86;5183036;56;1140785;-73
2023/06/07 03:27:42;;;;;;;13.58;6.78;;;;;;;16.57;74.25;100859.27;5220111;56;1140943;-75
2023/06/07 03:32:49;;;;;;;18.50;8.97;;;;;;;16.50;73.53;100870.53;5173083;56;1140938;-75
2023/06/07 03:37:55;;;;;;;16.40;8.13;;;;;;;16.35;73.87;100876.02;5151966;57;1140759;-73
2023/06/07 03:43:02;;;;;;;15.10;7.63;;;;;;;16.44;74.35;100868.48;5152093;57;1140887;-73
2023/06/07 03:48:08;;;;;;;15.77;7.20;;;;;;;16.52;74.11;100869.89;5171760;57;1141047;-74
2023/06/07 03:53:15;;;;;;;36.03;8.77;;;;;;;16.57;74.02;100876.63;5152021;56;1141033;-69
2023/06/07 03:58:24;;;;;;;23.73;7.03;;;;;;;16.72;74.12;100878.68;5164905;56;1140805;-72
2023/06/07 04:03:32;;;;;;;30.30;7.00;;;;;;;16.67;73.34;100878.77;5233299;56;1140940;-70
2023/06/07 04:08:39;;;;;;;25.17;8.20;;;;;;;16.60;73.30;100876.34;5258492;56;1140879;-69
2023/06/07 04:13:46;;;;;;;27.50;8.03;;;;;;;16.56;73.53;100878.95;5238437;56;1140713;-73
2023/06/07 04:18:52;;;;;;;11.73;6.73;;;;;;;16.52;73.91;100875.73;5200532;56;1140746;-74
2023/06/07 04:23:58;;;;;;;14.83;5.70;;;;;;;16.57;74.00;100883.30;5175287;56;1141029;-71
2023/06/07 04:29:05;;;;;;;9.50;5.87;;;;;;;16.70;73.38;100882.48;5223021;56;1140605;-71
2023/06/07 04:34:17;;;;;;;32.57;6.47;;;;;;;16.79;73.15;100886.95;5151175;57;1138683;-71
2023/06/07 04:39:20;;;;;;;15.77;5.97;;;;;;;16.87;72.49;100883.86;5161089;57;1140932;-68
2023/06/07 04:44:29;;;;;;;15.07;7.10;;;;;;;16.93;72.13;100874.91;5136907;57;1140759;-70
2023/06/07 04:49:38;;;;;;;14.20;5.60;;;;;;;17.02;71.74;100876.16;5138980;56;1140821;-68
2023/06/07 04:54:46;;;;;;;8.10;5.53;;;;;;;17.11;71.75;100889.94;5141630;57;1141098;-74
2023/06/07 04:59:52;;;;;;;7.23;5.40;;;;;;;17.25;71.29;100883.73;5161324;57;1139054;-73
2023/06/07 05:04:59;;;;;;;9.97;5.70;;;;;;;17.38;71.07;100878.34;5056336;58;1138667;-70
2023/06/07 05:10:07;;;;;;;14.73;6.10;;;;;;;17.50;71.20;100882.45;5056937;58;1138604;-70
2023/06/07 05:15:13;;;;;;;12.50;6.37;;;;;;;17.71;71.23;100887.50;5196951;56;1140948;-73
2023/06/07 05:20:19;;;;;;;22.10;6.30;;;;;;;17.92;70.84;100889.80;5219314;56;1140737;-70
2023/06/07 05:25:25;;;;;;;20.90;5.97;;;;;;;18.10;70.80;100884.39;5221979;56;1140864;-73
2023/06/07 05:30:31;;;;;;;15.13;6.33;;;;;;;18.27;71.26;100893.70;5227463;56;1141175;-71
2023/06/07 05:35:37;;;;;;;26.80;6.30;;;;;;;18.47;70.50;100895.64;5249779;56;1140918;-72
2023/06/07 05:40:42;;;;;;;20.30;6.17;;;;;;;18.76;70.79;100892.59;5217946;56;1140731;-71
2023/06/07 05:45:48;;;;;;;21.50;5.90;;;;;;;19.06;69.25;100892.50;5151701;57;1141003;-69
2023/06/07 05:50:54;;;;;;;17.30;5.53;;;;;;;19.34;68.99;100890.36;5170876;57;1141027;-70
2023/06/07 05:56:00;;;;;;;10.93;6.05;;;;;;;19.62;68.12;100893.58;5151099;57;1140812;-71
2023/06/07 06:01:10;;;;;;;8.55;5.87;;;;;;;19.82;66.21;100892.22;5212181;56;1140569;-74
2023/06/07 06:06:15;;;;;;;12.65;6.42;;;;;;;20.07;65.74;100890.83;5259064;56;1138759;-69
2023/06/07 06:11:21;;;;;;;19.45;5.30;;;;;;;20.35;67.13;100894.27;5200934;56;1140909;-70
2023/06/07 06:16:26;;;;;;;15.35;5.70;;;;;;;20.68;66.32;100900.88;5152320;57;1140768;-72
2023/06/07 06:21:32;;;;;;;20.20;6.25;;;;;;;20.93;65.71;100894.36;5152281;57;1140742;-70
2023/06/07 06:26:37;;;;;;;18.65;6.03;;;;;;;21.18;66.41;100893.71;5221429;56;1140971;-73
2023/06/07 06:31:43;;;;;;;9.10;5.28;;;;;;;21.48;65.38;100893.86;5238645;56;1140772;-71
2023/06/07 06:36:49;;;;;;;14.35;5.00;;;;;;;21.79;65.34;100893.75;5236103;56;1138843;-74
2023/06/07 06:41:55;;;;;;;8.33;5.33;;;;;;;22.02;64.34;100898.08;5205601;56;1140997;-69
2023/06/07 06:47:02;;;;;;;12.40;5.30;;;;;;;22.30;63.74;100902.86;5080445;57;1138990;-70
2023/06/07 06:52:08;;;;;;;17.80;5.60;;;;;;;22.53;60.02;100909.48;5218928;56;1140985;-70
2023/06/07 06:57:13;;;;;;;13.83;4.60;;;;;;;22.74;57.68;100906.86;5057594;58;1141059;-72
2023/06/07 07:02:19;;;;;;;13.00;4.72;;;;;;;22.95;58.00;100904.22;5145308;56;1140881;-72
2023/06/07 07:07:27;;;;;;;12.30;4.78;;;;;;;23.19;56.29;100906.27;5140759;56;1140815;-69
2023/06/07 07:12:32;;;;;;;5.33;4.62;;;;;;;23.41;56.56;100906.57;5141012;57;1141034;-70
2023/06/07 07:17:47;;;;;;;11.08;4.67;;;;;;;23.69;54.42;100906.12;5160702;57;1138991;-70
2023/06/07 07:22:53;;;;;;;9.13;4.85;;;;;;;23.85;52.58;100903.66;5178208;56;1140838;-74
2023/06/07 07:27:58;;;;;;;8.33;4.15;;;;;;;24.07;53.23;100910.69;5056485;58;1138750;-72
2023/06/07 07:33:05;;;;;;;6.53;3.60;;;;;;;24.32;53.57;100912.43;5247210;56;1138975;-68
2023/06/07 07:38:15;;;;;;;5.45;3.70;;;;;;;24.53;45.30;100922.33;5226943;56;1138594;-72
2023/06/07 07:43:17;;;;;;;7.03;4.17;;;;;;;24.71;44.62;100923.98;5161154;56;1138422;-69
2023/06/07 07:48:23;;;;;;;6.70;3.47;;;;;;;24.94;44.81;100925.55;5247016;56;1139151;-70
2023/06/07 07:53:29;;;;;;;7.12;3.83;;;;;;;25.11;43.58;100917.38;5226938;56;1138670;-70
2023/06/07 07:58:34;;;;;;;8.80;4.25;;;;;;;25.27;44.83;100922.94;5210564;56;1138419;-67
2023/06/07 08:03:41;;;;;;;6.75;3.55;;;;;;;25.45;45.40;100915.06;5140958;57;1138701;-72
2023/06/07 08:08:50;;;;;;;3.98;3.45;;;;;;;25.73;41.29;100914.38;5160569;57;1138727;-74
2023/06/07 08:13:56;;;;;;;5.28;3.25;;;;;;;25.76;40.63;100916.67;5140801;57;1138497;-71
2023/06/07 08:19:03;;;;;;;10.93;3.27;;;;;;;25.87;39.86;100907.91;5140659;57;1138628;-69
2023/06/07 08:24:08;;;;;;;7.58;3.12;;;;;;;25.95;40.09;100906.03;5220313;56;1140976;-69
2023/06/07 08:29:14;;;;;;;7.58;3.70;;;;;;;26.13;38.89;100905.67;5226852;56;1138693;-70
2023/06/07 08:34:22;;;;;;;5.58;2.75;;;;;;;26.35;41.23;100907.66;5226927;56;1138741;-73
2023/06/07 08:39:27;;;;;;;7.37;2.77;;;;;;;26.55;39.77;100911.15;5246883;56;1138658;-70
2023/06/07 08:44:32;;;;;;;11.73;3.17;;;;;;;26.69;37.22;100900.23;5201058;56;1138532;-75
2023/06/07 08:49:41;;;;;;;10.30;3.20;;;;;;;26.77;37.55;100906.77;5140748;57;1141013;-74
2023/06/07 08:54:48;;;;;;;4.17;3.00;;;;;;;26.91;35.26;100904.30;5160433;57;1140961;-70
2023/06/07 08:59:55;;;;;;;9.18;3.05;;;;;;;27.07;36.23;100900.27;5140658;56;1138455;-71
2023/06/07 09:05:06;;;;;;;15.32;3.02;;;;;;;27.15;35.78;100895.95;5140640;57;1138663;-72
2023/06/07 09:10:13;;;;;;;;;;;;;;;27.42;34.60;100889.29;5164121;57;1140770;-69
2023/06/07 09:15:23;;;;;;;7.97;2.70;;;;;;;27.42;34.22;100900.67;5146085;57;976214;-71
2023/06/07 09:20:33;;;;;;;3.90;3.15;;;;;;;27.15;34.95;100902.22;5141149;57;1136645;-74
2023/06/07 09:25:39;;;;;;;4.27;2.83;;;;;;;26.87;34.40;100905.80;5173123;56;1138647;-72
2023/06/07 09:30:57;;;;;;;6.17;2.75;;;;;;;26.72;35.34;100912.03;5247825;56;1138805;-69
2023/06/07 09:36:09;;;;;;;7.55;3.02;;;;;;;27.09;36.91;100906.32;5227330;56;1138357;-69
2023/06/07 09:41:14;;;;;;;3.45;2.62;;;;;;;27.49;35.68;100904.19;5230591;56;1138505;-69
2023/06/07 09:46:23;;;;;;;6.62;2.37;;;;;;;27.67;29.93;100894.75;5259092;56;1138687;-71
2023/06/07 09:51:32;;;;;;;8.20;2.40;;;;;;;27.67;29.93;100894.75;5239119;56;1138476;-74
2023/06/07 09:56:42;;;;;;;7.90;2.60;;;;;;;27.48;32.37;100908.80;5237884;56;1138883;-70
2023/06/07 10:01:47;;;;;;;17.25;3.02;;;;;;;27.42;33.02;100908.30;5166834;56;1138924;-74
2023/06/07 10:06:58;;;;;;;3.67;2.37;;;;;;;27.75;32.49;100900.45;5172027;56;1140986;-71
2023/06/07 10:12:06;;;;;;;5.92;2.27;;;;;;;28.25;31.18;100887.66;5152324;56;1138994;-73
2023/06/07 10:17:15;;;;;;;6.08;2.90;;;;;;;28.58;32.96;100891.33;5152442;56;1138651;-70
2023/06/07 10:22:27;;;;;;;28.10;3.55;;;;;;;28.64;31.33;100888.54;5172150;56;1138934;-70
2023/06/07 10:27:58;;;;;;;4.87;2.20;;;;;;;28.47;29.54;100879.86;5216640;56;1203197;-72
2023/06/07 10:33:05;;;;;;;8.13;2.45;;;;;;;28.31;28.74;100878.58;5238294;56;1138415;-70
2023/06/07 10:38:12;;;;;;;5.85;2.40;;;;;;;28.46;28.72;100872.75;5199286;56;1138631;-69
2023/06/07 10:43:19;;;;;;;5.25;2.17;;;;;;;28.76;29.83;100875.51;5160463;57;1138752;-73
2023/06/07 10:48:40;;;;;;;7.83;2.37;;;;;;;29.07;27.33;100867.67;5136756;57;1138387;-73
2023/06/07 10:53:58;;;;;;;25.55;4.12;;;;;;;29.23;29.59;100868.38;5139443;56;1138447;-73
2023/06/07 10:59:17;;;;;;;3.58;2.22;;;;;;;28.98;28.22;100865.82;5165618;56;1140499;-71
2023/06/07 11:04:39;;;;;;;10.10;4.05;;;;;;;29.07;29.73;100860.86;5247160;56;1139143;-72
2023/06/07 11:09:46;;;;;;;15.23;3.25;;;;;;;29.15;26.64;100867.36;5227099;56;1140784;-71
2023/06/07 11:15:35;;;;;;;5.50;2.22;;;;;;;29.22;27.04;100871.63;5227050;56;1140939;-71
2023/06/07 11:20:48;;;;;;;7.07;2.10;;;;;;;29.39;27.48;100869.09;5163271;56;1139096;-74
2023/06/07 11:26:10;;;;;;;6.40;2.35;;;;;;;29.52;26.07;100872.13;5197681;56;1138925;-74
2023/06/07 11:31:16;;;;;;;4.08;2.47;;;;;;;29.62;26.15;100860.96;5226979;56;1138589;-71
2023/06/07 11:36:22;;;;;;;8.00;2.42;;;;;;;29.54;25.75;100861.83;5174811;56;1138468;-73
2023/06/07 11:41:27;;;;;;;50.55;3.85;;;;;;;29.72;26.13;100857.11;5158831;57;1138926;-70
2023/06/07 11:46:35;;;;;;;2.90;2.65;;;;;;;30.01;27.31;100846.33;5136227;57;1140462;-76
2023/06/07 11:51:43;;;;;;;6.65;2.75;;;;;;;30.24;27.01;100835.93;5137832;56;1139162;-73
2023/06/07 11:56:50;;;;;;;4.17;2.30;;;;;;;30.45;27.18;100837.99;5156154;57;1138941;-74
2023/06/07 12:01:56;;;;;;;4.65;2.42;;;;;;;30.50;26.50;100843.56;5139973;56;1138775;-68
2023/06/07 12:07:23;;;;;;;11.28;3.50;;;;;;;30.23;26.46;100841.92;5139682;57;1138428;-71
2023/06/07 12:12:28;;;;;;;16.35;3.05;;;;;;;30.12;26.47;100838.66;5158422;57;1140988;-70
2023/06/07 12:17:36;;;;;;;11.20;2.65;;;;;;;30.32;27.34;100830.91;5066981;57;1140919;-72
2023/06/07 12:22:41;;;;;;;22.53;3.27;;;;;;;30.51;26.40;100825.28;5097654;57;1140881;-71
2023/06/07 12:27:48;;;;;;;9.00;2.65;;;;;;;30.67;27.28;100817.72;5229825;56;1140988;-72
2023/06/07 12:33:04;;;;;;;4.05;2.42;;;;;;;30.87;24.79;100819.44;5226780;56;1138465;-70
2023/06/07 12:38:06;;;;;;;5.95;2.65;;;;;;;30.87;24.42;100809.87;5188340;56;1139060;-72
2023/06/07 12:43:12;;;;;;;3.65;2.72;;;;;;;30.85;23.47;100809.33;5161107;56;1138932;-70
2023/06/07 12:48:17;;;;;;;4.37;2.62;;;;;;;30.92;23.17;100810.52;5180964;56;1138727;-70
2023/06/07 12:53:23;;;;;;;8.40;6.12;;;;;;;30.89;22.61;100806.37;5237304;56;1138965;-73
2023/06/07 12:58:29;;;;;;;3.50;2.60;;;;;;;30.61;22.65;100804.49;5243318;56;1138819;-70
2023/06/07 13:03:34;;;;;;;9.65;2.35;;;;;;;30.44;25.05;100800.31;5151638;57;1138441;-68
2023/06/07 13:08:43;;;;;;;3.35;2.50;;;;;;;30.77;26.12;100802.87;5151778;57;1138976;-71
2023/06/07 13:13:48;;;;;;;3.27;2.60;;;;;;;30.94;24.43;100790.62;5171564;56;1138644;-74
2023/06/07 13:18:54;;;;;;;3.08;2.30;;;;;;;30.98;24.16;100786.33;5151454;57;1138218;-71
2023/06/07 13:24:00;;;;;;;3.90;2.42;;;;;;;30.86;23.86;100785.00;5156225;56;1138966;-69
2023/06/07 13:29:05;;;;;;;5.87;2.95;;;;;;;30.70;23.29;100789.39;5259062;56;1138672;-72
2023/06/07 13:34:12;;;;;;;8.15;2.83;;;;;;;30.36;23.18;100791.16;5239092;56;1138751;-70
2023/06/07 13:39:18;;;;;;;5.22;2.80;;;;;;;30.10;24.23;100786.23;5180071;56;1138726;-73
2023/06/07 13:44:24;;;;;;;15.60;3.35;;;;;;;30.25;23.57;100778.92;5172094;57;1138714;-73
2023/06/07 13:49:29;;;;;;;2.87;2.47;;;;;;;30.49;24.45;100775.02;5152428;57;1140475;-69
2023/06/07 13:54:35;;;;;;;11.55;3.08;;;;;;;30.77;24.86;100766.02;5152293;57;1138728;-69
2023/06/07 13:59:41;;;;;;;8.57;2.70;;;;;;;31.09;25.31;100751.27;5187960;56;1140762;-73
2023/06/07 14:04:48;;;;;;;11.28;2.62;;;;;;;31.24;24.42;100752.08;5258917;56;1139046;-72
2023/06/07 14:09:54;;;;;;;8.53;3.08;;;;;;;31.06;23.84;100758.58;5166381;56;1140805;-70
2023/06/07 14:15:00;;;;;;;25.70;15.90;;;;;;;30.81;24.56;100757.62;5152308;57;1138757;-68
2023/06/07 14:20:07;;;;;;;26.45;3.65;;;;;;;30.63;25.06;100757.84;5172131;57;1143030;-72
2023/06/07 14:25:13;;;;;;;11.00;2.90;;;;;;;30.43;25.68;100757.70;5177404;56;1140982;-74
2023/06/07 14:30:19;;;;;;;4.80;2.62;;;;;;;30.62;26.42;100750.18;5238832;56;1141024;-72
2023/06/07 14:35:25;;;;;;;7.72;3.02;;;;;;;30.88;25.51;100743.79;5258797;56;1139001;-72
2023/06/07 14:40:30;;;;;;;18.57;3.00;;;;;;;31.01;24.95;100736.09;5221282;56;1138330;-73
2023/06/07 14:45:36;;;;;;;8.75;2.37;;;;;;;31.14;24.38;100727.33;5153798;57;1140856;-73
2023/06/07 14:50:41;;;;;;;8.73;3.52;;;;;;;31.09;23.46;100728.03;5156897;57;1138976;-69
2023/06/07 14:55:47;;;;;;;27.17;5.10;;;;;;;30.94;24.12;100737.35;5176813;57;1138931;-72
2023/06/07 15:00:53;;;;;;;9.55;3.20;;;;;;;30.89;24.39;100735.89;5207070;56;1140620;-70
2023/06/07 15:05:58;;;;;;;4.42;2.80;;;;;;;30.87;25.34;100729.84;5172233;56;1138672;-74
2023/06/07 15:11:04;;;;;;;7.80;3.12;;;;;;;30.83;25.31;100731.44;5176653;57;1138860;-73
2023/06/07 15:16:09;;;;;;;7.22;3.45;;;;;;;30.80;25.68;100730.02;5156771;57;1138838;-73
2023/06/07 15:21:15;;;;;;;7.65;2.92;;;;;;;30.86;25.53;100735.05;5156655;56;1138690;-74
2023/06/07 15:26:21;;;;;;;9.68;4.60;;;;;;;30.93;25.51;100722.03;5221387;56;1138896;-74
2023/06/07 15:31:26;;;;;;;5.42;3.15;;;;;;;30.94;25.41;100719.59;5243373;56;1138624;-70
2023/06/07 15:36:32;;;;;;;4.60;2.50;;;;;;;31.01;26.14;100715.61;5224213;56;1138686;-73
2023/06/07 15:41:37;;;;;;;5.77;3.10;;;;;;;31.06;25.52;100712.97;5239124;56;1138693;-69
2023/06/07 15:46:43;;;;;;;3.42;3.08;;;;;;;31.11;25.60;100710.35;5254017;56;1138619;-72
2023/06/07 15:51:48;;;;;;;9.18;3.77;;;;;;;31.15;24.90;100707.95;5184250;56;1138404;-72
2023/06/07 15:56:54;;;;;;;20.40;3.70;;;;;;;31.12;24.17;100716.64;5156762;56;1138451;-70
2023/06/07 16:02:01;;;;;;;7.60;2.83;;;;;;;31.00;24.62;100719.98;5176132;56;1141016;-73
2023/06/07 16:07:09;;;;;;;4.53;3.08;;;;;;;31.02;25.04;100713.70;5156601;57;1138652;-69
2023/06/07 16:12:15;;;;;;;8.35;2.92;;;;;;;31.06;25.01;100713.50;5156438;57;1138611;-74
2023/06/07 16:17:20;;;;;;;6.35;2.75;;;;;;;31.06;25.00;100711.59;5176603;57;1138950;-74
2023/06/07 16:22:26;;;;;;;11.83;3.87;;;;;;;31.14;25.02;100714.50;5205348;56;1138565;-72
2023/06/07 16:27:32;;;;;;;7.00;3.80;;;;;;;31.21;25.38;100708.84;5177886;56;1140855;-69
2023/06/07 16:32:37;;;;;;;7.87;3.97;;;;;;;31.34;25.11;100710.68;5229975;56;1139013;-70
2023/06/07 16:37:43;;;;;;;17.75;4.22;;;;;;;31.27;24.87;100706.48;5254147;56;1138964;-69
2023/06/07 16:42:48;;;;;;;4.50;3.45;;;;;;;31.18;24.83;100700.60;5186330;56;1141027;-69
2023/06/07 16:47:54;;;;;;;4.45;2.83;;;;;;;30.98;24.48;100700.27;5155452;57;1138738;-72
2023/06/07 16:53:00;;;;;;;16.75;3.98;;;;;;;30.89;24.55;100707.20;5159975;57;1138484;-68
2023/06/07 16:58:05;;;;;;;4.50;3.10;;;;;;;30.75;24.72;100700.72;5154517;57;1141084;-68
2023/06/07 17:03:11;;;;;;;12.90;3.20;;;;;;;30.57;24.34;100696.84;5125283;57;1138681;-67
2023/06/07 17:08:17;;;;;;;10.38;3.12;;;;;;;30.36;24.96;100698.91;5151145;57;1140973;-69
2023/06/07 17:13:22;;;;;;;10.82;3.05;;;;;;;30.34;25.05;100701.05;5090833;57;1140738;-69
2023/06/07 17:18:28;;;;;;;10.32;3.80;;;;;;;30.27;25.06;100694.36;5150101;57;1140791;-68
2023/06/07 17:23:34;;;;;;;16.95;4.03;;;;;;;30.17;25.07;100693.34;5146527;57;1140917;-71
2023/06/07 17:28:39;;;;;;;27.48;4.75;;;;;;;29.99;25.52;100698.45;5174552;57;1140919;-68
2023/06/07 17:33:45;;;;;;;10.23;4.00;;;;;;;29.75;26.96;100700.39;5154770;57;1140707;-70
2023/06/07 17:38:51;;;;;;;6.70;3.17;;;;;;;29.45;27.92;100700.56;5154973;57;1140770;-71
2023/06/07 17:43:56;;;;;;;12.40;6.12;;;;;;;29.25;28.19;100704.14;5096127;57;1139031;-71
2023/06/07 17:49:02;;;;;;;17.80;3.98;;;;;;;29.03;28.63;100710.16;5128895;57;1140600;-69
2023/06/07 17:54:08;;;;;;;21.62;4.83;;;;;;;29.03;28.63;100710.16;5154710;57;1140714;-68
2023/06/07 17:59:13;;;;;;;22.07;7.03;;;;;;;28.96;29.14;100714.91;5094458;57;1141036;-69
2023/06/07 18:04:19;;;;;;;18.42;5.45;;;;;;;28.83;30.92;100723.30;5070895;58;1140717;-68
2023/06/07 18:09:25;;;;;;;9.45;4.70;;;;;;;28.66;30.77;100726.36;5070796;58;1141165;-71
2023/06/07 18:14:30;;;;;;;12.80;5.55;;;;;;;28.57;30.45;100730.48;5090351;58;1138923;-67
2023/06/07 18:19:39;;;;;;;8.68;6.67;;;;;;;28.46;30.50;100732.61;5087611;57;1140517;-70
2023/06/07 18:24:44;;;;;;;17.73;6.30;;;;;;;28.36;30.46;100734.55;5142782;57;1138800;-70
2023/06/07 18:29:50;;;;;;;17.92;6.35;;;;;;;28.25;30.70;100731.25;5161247;57;1141070;-69
2023/06/07 18:34:55;;;;;;;10.70;4.75;;;;;;;28.20;30.95;100731.09;5111540;57;1140756;-71
2023/06/07 18:40:04;;;;;;;90.62;8.68;;;;;;;28.15;31.36;100733.63;5110260;57;1140746;-67
2023/06/07 18:45:09;;;;;;;29.42;8.58;;;;;;;28.02;31.07;100737.36;5128905;57;1141054;-69
2023/06/07 18:50:16;;;;;;;21.80;6.03;;;;;;;27.91;31.48;100736.23;5136062;56;1140817;-71
2023/06/07 18:55:22;;;;;;;16.48;7.22;;;;;;;27.83;31.85;100742.49;5045391;57;1140989;-68
2023/06/07 19:00:27;;;;;;;14.73;9.43;;;;;;;27.63;31.83;100745.45;5172062;56;1141075;-66
2023/06/07 19:05:33;;;;;;;30.00;8.08;;;;;;;27.44;32.25;100743.73;5166605;56;1140658;-69
2023/06/07 19:10:38;;;;;;;18.90;8.23;;;;;;;27.21;32.52;100747.05;5154884;56;1140983;-68
2023/06/07 19:15:44;;;;;;;9.35;5.08;;;;;;;26.81;32.92;100749.23;5177521;56;1140742;-76
2023/06/07 19:20:50;;;;;;;6.17;4.10;;;;;;;26.81;32.92;100749.23;5105612;57;1138701;-73
2023/06/07 19:25:55;;;;;;;23.02;7.35;;;;;;;26.69;32.89;100767.28;5227105;56;1138642;-73
2023/06/07 19:31:01;;;;;;;22.42;7.60;;;;;;;26.58;32.99;100764.19;5247404;56;1141484;-73
2023/06/07 19:36:07;;;;;;;21.07;8.00;;;;;;;26.62;33.99;100764.59;5227198;56;1140466;-72
2023/06/07 19:41:13;;;;;;;27.30;10.32;;;;;;;26.66;34.51;100764.47;5163731;56;1140496;-73
2023/06/07 19:46:18;;;;;;;36.55;13.93;;;;;;;26.68;35.60;100766.45;5227631;56;1143023;-73
2023/06/07 19:51:24;;;;;;;48.38;16.42;;;;;;;26.73;35.29;100766.63;5240995;56;1142939;-69
2023/06/07 19:56:30;;;;;;;30.00;13.38;;;;;;;26.62;34.82;100770.85;5200613;56;1142689;-73
2023/06/07 20:01:36;;;;;;;24.87;8.05;;;;;;;26.46;34.79;100768.64;5188865;56;1142847;-73
2023/06/07 20:06:43;;;;;;;20.65;8.25;;;;;;;26.24;34.85;100776.77;5175658;56;1140859;-73
2023/06/07 20:11:48;;;;;;;15.13;6.22;;;;;;;25.99;35.25;100769.86;5140993;57;1140507;-70
2023/06/07 20:16:54;;;;;;;18.55;7.10;;;;;;;25.87;36.58;100766.98;5173919;56;1140752;-72
2023/06/07 20:22:01;;;;;;;25.60;7.70;;;;;;;25.82;36.85;100772.20;5228267;56;1141240;-73
2023/06/07 20:27:07;;;;;;;9.85;5.55;;;;;;;25.69;37.16;100770.05;5149204;56;1140821;-70
2023/06/07 20:32:12;;;;;;;12.88;5.70;;;;;;;25.55;38.14;100770.56;5209066;56;1138699;-72
2023/06/07 20:37:18;;;;;;;27.65;6.72;;;;;;;25.43;38.96;100764.96;5181651;56;1140994;-73
2023/06/07 20:42:24;;;;;;;31.02;7.67;;;;;;;25.30;40.07;100760.08;5140736;56;1140731;-72
2023/06/07 20:47:30;;;;;;;32.93;6.78;;;;;;;25.19;40.92;100766.97;5140918;57;1140501;-71
2023/06/07 20:52:35;;;;;;;24.82;6.67;;;;;;;25.09;41.91;100766.00;5146804;57;1141083;-69
2023/06/07 20:57:41;;;;;;;23.38;6.95;;;;;;;24.98;42.90;100763.92;5172851;56;1140977;-73
2023/06/07 21:02:47;;;;;;;31.33;7.22;;;;;;;24.90;43.68;100764.11;5224306;56;1140756;-67
2023/06/07 21:07:52;;;;;;;16.67;5.85;;;;;;;24.81;44.20;100768.87;5224190;56;1140608;-70
2023/06/07 21:12:58;;;;;;;21.85;7.45;;;;;;;24.75;44.85;100763.47;5213891;56;1141032;-70
2023/06/07 21:18:04;;;;;;;12.80;6.12;;;;;;;24.61;45.16;100772.05;5214013;56;1140750;-69
2023/06/07 21:23:09;;;;;;;15.93;8.28;;;;;;;24.33;45.65;100769.47;5207029;56;1140785;-68
2023/06/07 21:28:15;;;;;;;15.15;6.97;;;;;;;24.25;46.30;100758.84;5255941;56;1140987;-70
2023/06/07 21:33:21;;;;;;;13.10;6.63;;;;;;;24.14;46.39;100762.08;5191060;56;1140830;-71
2023/06/07 21:38:27;;;;;;;13.75;6.55;;;;;;;24.04;46.79;100769.73;5198069;56;1140753;-70
2023/06/07 21:43:33;;;;;;;18.34;6.54;;;;;;;24.00;46.99;100771.99;5191957;56;1141035;-74
2023/06/07 21:48:40;;;;;;;21.30;8.88;;;;;;;23.76;47.00;100771.14;5185648;56;1140962;-70
2023/06/07 21:53:45;;;;;;;40.92;10.60;;;;;;;22.95;48.86;100774.74;5201581;56;1140866;-71
2023/06/07 21:58:51;;;;;;;32.88;10.75;;;;;;;21.87;49.64;100781.91;5205561;56;1143057;-71
2023/06/07 22:03:56;;;;;;;19.40;10.58;;;;;;;21.35;51.65;100785.49;5172434;56;1142842;-74
2023/06/07 22:09:02;;;;;;;26.90;11.03;;;;;;;21.15;52.04;100780.25;5152365;56;1142684;-69
2023/06/07 22:14:09;;;;;;;30.40;10.28;;;;;;;21.38;52.99;100777.90;5152391;56;1142622;-70
2023/06/07 22:19:15;;;;;;;16.73;9.08;;;;;;;21.68;51.99;100779.28;5172195;57;1142883;-72
2023/06/07 22:24:23;;;;;;;15.63;7.30;;;;;;;21.88;51.58;100775.50;5186786;56;1140588;-73
2023/06/07 22:29:28;;;;;;;10.82;6.62;;;;;;;21.95;51.03;100782.66;5238540;56;1140481;-68
2023/06/07 22:34:34;;;;;;;9.03;6.03;;;;;;;22.10;50.99;100786.72;5238786;56;1140908;-70
2023/06/07 22:39:41;;;;;;;15.10;6.87;;;;;;;21.94;50.85;100788.23;5256284;56;1139085;-68
2023/06/07 22:44:46;;;;;;;10.20;6.05;;;;;;;21.88;51.54;100779.03;5173284;56;1140772;-72
2023/06/07 22:49:52;;;;;;;15.15;6.45;;;;;;;21.88;51.34;100779.03;5152477;56;1140902;-73
2023/06/07 22:54:58;;;;;;;11.38;6.62;;;;;;;21.87;50.94;100781.91;5211510;56;1141011;-73
2023/06/07 23:00:04;;;;;;;18.98;7.72;;;;;;;21.92;50.95;100781.69;5198955;56;1140814;-71
2023/06/07 23:05:16;;;;;;;16.62;7.08;;;;;;;21.99;50.98;100782.66;5183625;56;1140699;-75